createdAt,value
2023-04-08T00:01:26.228Z,10.53
2023-04-08T00:03:55.148Z,10.77
2023-04-08T00:06:23.924Z,11.50
2023-04-08T00:08:52.512Z,10.57
2023-04-08T00:11:22.485Z,16.10
2023-04-08T00:13:51.412Z,11.13
2023-04-08T00:16:19.997Z,10.40
2023-04-08T00:18:49.422Z,12.17
2023-04-08T00:21:20.680Z,10.57
2023-04-08T00:23:49.337Z,11.50
2023-04-08T00:26:17.901Z,12.63
2023-04-08T00:28:48.138Z,11.40
2023-04-08T00:31:17.030Z,12.10
2023-04-08T00:33:45.716Z,14.37
2023-04-08T00:36:14.311Z,10.90
2023-04-08T00:38:42.843Z,14.03
2023-04-08T00:41:11.470Z,12.07
2023-04-08T00:43:40.192Z,11.10
2023-04-08T00:46:10.691Z,14.80
2023-04-08T00:48:39.309Z,12.50
2023-04-08T00:51:08.108Z,12.87
2023-04-08T00:53:36.685Z,12.77
2023-04-08T00:56:05.823Z,13.47
2023-04-08T00:58:34.580Z,14.73
2023-04-08T01:01:08.371Z,12.17
2023-04-08T01:03:44.322Z,12.60
2023-04-08T01:06:17.532Z,13.20
2023-04-08T01:08:46.759Z,12.77
2023-04-08T01:11:15.864Z,13.77
2023-04-08T01:13:45.719Z,12.10
2023-04-08T01:16:16.928Z,13.50
2023-04-08T01:18:47.921Z,12.80
2023-04-08T01:21:17.442Z,13.40
2023-04-08T01:23:54.887Z,14.50
2023-04-08T01:26:26.850Z,12.33
2023-04-08T01:28:58.824Z,13.87
2023-04-08T01:31:28.173Z,14.10
2023-04-08T01:33:57.611Z,13.30
2023-04-08T01:36:27.961Z,14.40
2023-04-08T01:38:57.339Z,14.53
2023-04-08T01:41:27.539Z,12.53
2023-04-08T01:43:56.594Z,12.57
2023-04-08T01:46:25.525Z,12.87
2023-04-08T01:48:55.627Z,11.80
2023-04-08T01:51:24.508Z,13.13
2023-04-08T01:53:53.123Z,11.80
2023-04-08T01:56:23.343Z,14.37
2023-04-08T01:58:54.161Z,14.60
2023-04-08T02:01:26.669Z,11.93
2023-04-08T02:03:57.557Z,12.10
2023-04-08T02:06:27.677Z,13.43
2023-04-08T02:08:57.883Z,11.80
2023-04-08T02:11:26.965Z,14.17
2023-04-08T02:13:56.975Z,13.50
2023-04-08T02:16:31.358Z,12.63
2023-04-08T02:19:04.644Z,12.43
2023-04-08T02:21:37.429Z,12.63
2023-04-08T02:24:07.281Z,10.53
2023-04-08T02:26:37.430Z,11.50
2023-04-08T02:29:10.321Z,13.73
2023-04-08T02:31:40.044Z,10.97
2023-04-08T02:34:09.715Z,11.40
2023-04-08T02:36:39.028Z,11.03
2023-04-08T02:39:08.061Z,10.70
2023-04-08T02:41:36.643Z,10.80
2023-04-08T02:44:05.312Z,11.90
2023-04-08T02:46:35.246Z,11.53
2023-04-08T02:49:03.887Z,11.23
2023-04-08T02:51:33.220Z,11.67
2023-04-08T02:54:01.824Z,11.70
2023-04-08T02:56:30.488Z,13.87
2023-04-08T02:58:59.103Z,12.50
2023-04-08T03:01:27.874Z,12.67
2023-04-08T03:03:57.935Z,11.27
2023-04-08T03:06:26.923Z,14.73
2023-04-08T03:08:55.529Z,13.60
2023-04-08T03:11:24.097Z,14.27
2023-04-08T03:13:52.693Z,13.07
2023-04-08T03:16:21.411Z,13.97
2023-04-08T03:18:50.966Z,14.90
2023-04-08T03:21:21.314Z,15.73
2023-04-08T03:23:49.895Z,16.27
2023-04-08T03:26:18.486Z,12.47
2023-04-08T03:28:47.199Z,14.07
2023-04-08T03:31:16.124Z,14.63
2023-04-08T03:33:44.704Z,15.03
2023-04-08T03:36:13.382Z,15.13
2023-04-08T03:38:43.333Z,14.90
2023-04-08T03:41:11.894Z,15.17
2023-04-08T03:43:40.490Z,14.77
2023-04-08T03:46:09.274Z,15.20
2023-04-08T03:48:37.866Z,15.53
2023-04-08T03:51:06.504Z,14.43
2023-04-08T03:53:35.052Z,16.47
2023-04-08T03:56:05.254Z,17.40
2023-04-08T03:58:33.888Z,16.40
2023-04-08T04:01:02.461Z,17.77
2023-04-08T04:03:31.669Z,17.63
2023-04-08T04:06:00.488Z,17.60
2023-04-08T04:08:29.140Z,18.20
2023-04-08T04:10:57.742Z,20.67
2023-04-08T04:13:27.763Z,18.23
2023-04-08T04:15:57.537Z,18.23
2023-04-08T04:18:26.400Z,19.80
2023-04-08T04:20:55.034Z,17.23
2023-04-08T04:23:25.657Z,18.87
2023-04-08T04:25:54.244Z,20.33
2023-04-08T04:28:22.861Z,18.20
2023-04-08T04:30:54.669Z,19.07
2023-04-08T04:33:24.618Z,17.40
2023-04-08T04:35:53.327Z,17.67
2023-04-08T04:38:21.932Z,18.80
2023-04-08T04:40:50.533Z,19.00
2023-04-08T04:43:19.102Z,18.50
2023-04-08T04:45:47.702Z,19.63
2023-04-08T04:48:17.612Z,19.03
2023-04-08T04:50:46.161Z,21.03
2023-04-08T04:53:14.732Z,15.47
2023-04-08T04:55:43.348Z,19.60
2023-04-08T04:58:11.884Z,18.60
2023-04-08T05:00:40.437Z,20.90
2023-04-08T05:03:09.216Z,23.50
2023-04-08T05:05:39.454Z,20.90
2023-04-08T05:08:08.261Z,18.73
2023-04-08T05:10:36.988Z,19.50
2023-04-08T05:13:05.676Z,19.03
2023-04-08T05:15:34.294Z,19.47
2023-04-08T05:18:02.993Z,17.97
2023-04-08T05:20:31.591Z,19.83
2023-04-08T05:23:01.627Z,19.17
2023-04-08T05:25:31.102Z,18.37
2023-04-08T05:27:59.744Z,20.40
2023-04-08T05:30:28.331Z,18.90
2023-04-08T05:32:59.861Z,17.03
2023-04-08T05:35:29.391Z,18.77
2023-04-08T05:37:57.996Z,18.90
2023-04-08T05:40:27.976Z,20.67
2023-04-08T05:42:56.559Z,24.90
2023-04-08T05:45:25.207Z,17.93
2023-04-08T05:47:53.823Z,24.33
2023-04-08T05:50:22.486Z,21.73
2023-04-08T05:52:51.302Z,23.63
2023-04-08T05:55:19.986Z,20.60
2023-04-08T05:57:50.244Z,19.27
2023-04-08T06:00:20.011Z,25.87
2023-04-08T06:02:49.017Z,23.07
2023-04-08T06:05:19.104Z,24.60
2023-04-08T06:07:47.753Z,27.77
2023-04-08T06:10:16.373Z,23.50
2023-04-08T06:12:45.017Z,22.10
2023-04-08T06:15:14.980Z,19.43
2023-04-08T06:17:43.807Z,22.03
2023-04-08T06:20:12.637Z,19.83
2023-04-08T06:22:41.355Z,22.83
2023-04-08T06:25:10.296Z,22.83
2023-04-08T06:27:38.988Z,21.80
2023-04-08T06:30:09.289Z,17.07
2023-04-08T06:32:39.259Z,20.67
2023-04-08T06:35:09.047Z,15.60
2023-04-08T06:37:38.744Z,19.27
2023-04-08T06:40:08.685Z,16.47
2023-04-08T06:42:38.284Z,16.73
2023-04-08T06:45:07.755Z,16.80
2023-04-08T06:47:36.412Z,19.90
2023-04-08T06:50:07.587Z,20.10
2023-04-08T06:52:36.257Z,18.10
2023-04-08T06:55:05.366Z,19.87
2023-04-08T06:57:33.945Z,17.23
2023-04-08T07:00:02.644Z,15.80
2023-04-08T07:02:31.321Z,15.23
2023-04-08T07:04:59.926Z,16.10
2023-04-08T07:07:29.846Z,16.37
2023-04-08T07:09:58.481Z,18.33
2023-04-08T07:12:27.150Z,18.53
2023-04-08T07:14:55.855Z,18.30
2023-04-08T07:17:24.684Z,18.13
2023-04-08T07:19:53.390Z,21.20
2023-04-08T07:22:22.522Z,29.30
2023-04-08T07:24:52.467Z,16.63
2023-04-08T07:27:21.615Z,14.70
2023-04-08T07:29:54.096Z,15.60
2023-04-08T07:32:23.615Z,15.60
2023-04-08T07:34:52.199Z,17.43
2023-04-08T07:37:20.811Z,16.83
2023-04-08T07:39:49.480Z,14.73
2023-04-08T07:42:20.580Z,13.97
2023-04-08T07:44:49.307Z,13.17
2023-04-08T07:47:17.925Z,13.83
2023-04-08T07:49:48.159Z,13.57
2023-04-08T07:52:17.050Z,17.03
2023-04-08T07:54:46.157Z,13.70
2023-04-08T07:57:14.941Z,18.70
2023-04-08T07:59:45.481Z,14.13
2023-04-08T08:02:14.204Z,14.43
2023-04-08T08:04:43.053Z,12.83
2023-04-08T08:07:11.802Z,15.50
2023-04-08T08:09:40.461Z,11.57
2023-04-08T08:12:09.090Z,13.30
2023-04-08T08:14:37.704Z,12.40
2023-04-08T08:17:07.732Z,12.83
2023-04-08T08:19:36.404Z,14.57
2023-04-08T08:22:05.015Z,10.80
2023-04-08T08:24:33.709Z,12.32
2023-04-08T08:27:04.414Z,12.20
2023-04-08T08:29:33.278Z,14.30
2023-04-08T08:32:02.032Z,15.97
2023-04-08T08:34:32.050Z,17.20
2023-04-08T08:37:00.708Z,13.10
2023-04-08T08:39:29.283Z,13.10
2023-04-08T08:41:57.885Z,13.60
2023-04-08T08:44:27.062Z,16.13
2023-04-08T08:46:55.895Z,13.97
2023-04-08T08:49:24.847Z,17.07
2023-04-08T08:51:55.260Z,16.63
2023-04-08T08:54:23.883Z,16.43
2023-04-08T08:56:53.062Z,14.97
2023-04-08T08:59:21.711Z,13.07
2023-04-08T09:01:50.400Z,13.97
2023-04-08T09:04:20.542Z,13.57
2023-04-08T09:06:51.593Z,14.37
2023-04-08T09:09:21.516Z,16.30
2023-04-08T09:11:50.262Z,11.30
2023-04-08T09:14:23.230Z,14.47
2023-04-08T09:16:52.285Z,10.80
2023-04-08T09:19:20.996Z,14.33
2023-04-08T09:22:08.089Z,11.70
2023-04-08T09:24:39.071Z,14.77
2023-04-08T09:27:07.775Z,13.10
2023-04-08T09:29:39.276Z,17.90
2023-04-08T09:32:08.699Z,11.33
2023-04-08T09:34:37.549Z,12.07
2023-04-08T09:37:07.199Z,14.23
2023-04-08T09:39:36.135Z,13.03
2023-04-08T09:42:06.794Z,14.40
2023-04-08T09:44:36.439Z,10.57
2023-04-08T09:47:09.872Z,13.30
2023-04-08T09:49:39.960Z,12.43
2023-04-08T09:52:09.654Z,12.27
2023-04-08T09:54:44.289Z,9.60
2023-04-08T09:57:18.121Z,11.20
2023-04-08T09:59:51.297Z,13.20
2023-04-08T10:02:26.902Z,11.43
2023-04-08T10:04:56.131Z,13.17
2023-04-08T10:07:24.799Z,11.30
2023-04-08T10:09:53.692Z,12.30
2023-04-08T10:12:23.660Z,15.10
2023-04-08T10:15:22.832Z,12.37
2023-04-08T10:17:51.607Z,12.67
2023-04-08T10:20:45.896Z,13.93
2023-04-08T10:23:15.672Z,13.33
2023-04-08T10:25:45.116Z,12.70
2023-04-08T10:28:27.739Z,12.80
2023-04-08T10:30:57.426Z,14.10
2023-04-08T10:33:33.665Z,11.43
2023-04-08T10:36:11.305Z,10.80
2023-04-08T10:38:42.124Z,10.17
2023-04-08T10:41:12.014Z,11.17
2023-04-08T10:43:42.005Z,11.93
2023-04-08T10:46:11.891Z,10.23
2023-04-08T10:48:40.579Z,13.07
2023-04-08T10:51:09.171Z,10.93
2023-04-08T10:53:40.666Z,12.53
2023-04-08T10:56:13.186Z,10.20
2023-04-08T10:58:50.650Z,12.20
2023-04-08T11:01:19.957Z,12.83
2023-04-08T11:03:49.021Z,11.80
2023-04-08T11:06:18.432Z,11.93
2023-04-08T11:08:47.423Z,12.00
2023-04-08T11:11:16.315Z,13.10
2023-04-08T11:13:53.209Z,11.80
2023-04-08T11:16:24.302Z,11.90
2023-04-08T11:18:53.048Z,11.50
2023-04-08T11:21:22.515Z,12.27
2023-04-08T11:23:51.830Z,11.40
2023-04-08T11:26:20.976Z,10.90
2023-04-08T11:28:51.490Z,10.40
2023-04-08T11:31:24.135Z,12.43
2023-04-08T11:33:56.688Z,14.90
2023-04-08T11:36:26.074Z,10.80
2023-04-08T11:38:55.598Z,14.47
2023-04-08T11:41:24.223Z,9.77
2023-04-08T11:43:54.345Z,14.83
2023-04-08T11:46:23.659Z,12.03
2023-04-08T11:49:05.897Z,12.20
2023-04-08T11:51:35.431Z,13.80
2023-04-08T11:54:06.532Z,11.03
2023-04-08T11:56:45.884Z,9.00
2023-04-08T11:59:14.530Z,9.90
2023-04-08T12:01:43.197Z,11.20
2023-04-08T12:04:13.361Z,10.40
2023-04-08T12:06:43.584Z,11.40
2023-04-08T12:09:12.637Z,12.23
2023-04-08T12:11:41.305Z,17.00
2023-04-08T12:14:09.937Z,15.30
2023-04-08T12:16:38.645Z,10.40
2023-04-08T12:19:07.319Z,10.57
2023-04-08T12:21:38.105Z,10.07
2023-04-08T12:24:07.167Z,9.97
2023-04-08T12:26:35.782Z,13.07
2023-04-08T12:29:04.412Z,11.17
2023-04-08T12:31:33.077Z,13.83
2023-04-08T12:34:01.838Z,10.23
2023-04-08T12:36:31.429Z,10.70
2023-04-08T12:39:01.376Z,9.30
2023-04-08T12:41:30.041Z,13.67
2023-04-08T12:43:58.607Z,8.73
2023-04-08T12:46:28.331Z,9.40
2023-04-08T12:49:04.190Z,9.40
2023-04-08T12:51:33.880Z,9.03
2023-04-08T12:54:04.388Z,12.47
2023-04-08T12:56:33.152Z,16.90
2023-04-08T12:59:01.946Z,11.77
2023-04-08T13:01:31.056Z,9.63
2023-04-08T13:04:00.213Z,10.90
2023-04-08T13:06:29.008Z,8.43
2023-04-08T13:08:57.644Z,9.20
2023-04-08T13:11:27.675Z,12.67
2023-04-08T13:13:56.346Z,13.00
2023-04-08T13:16:25.025Z,9.90
2023-04-08T13:18:53.740Z,11.80
2023-04-08T13:21:22.432Z,10.20
2023-04-08T13:23:51.022Z,10.37
2023-04-08T13:26:19.633Z,13.10
2023-04-08T13:28:57.207Z,12.90
2023-04-08T13:31:26.851Z,9.10
2023-04-08T13:33:58.222Z,10.17
2023-04-08T13:36:28.552Z,9.37
2023-04-08T13:38:57.666Z,11.47
2023-04-08T13:41:28.046Z,12.10
2023-04-08T13:43:58.358Z,7.90
2023-04-08T13:46:27.143Z,11.10
2023-04-08T13:48:55.819Z,11.47
2023-04-08T13:51:24.467Z,9.73
2023-04-08T13:53:53.107Z,9.87
2023-04-08T13:56:21.997Z,11.43
2023-04-08T13:58:56.807Z,9.23
2023-04-08T14:01:27.764Z,9.17
2023-04-08T14:03:56.447Z,14.10
2023-04-08T14:06:25.100Z,8.83
2023-04-08T14:08:54.018Z,11.30
2023-04-08T14:11:22.763Z,9.80
2023-04-08T14:13:51.370Z,10.83
2023-04-08T14:16:20.049Z,9.57
2023-04-08T14:18:51.054Z,8.57
2023-04-08T14:21:19.829Z,9.00
2023-04-08T14:23:48.386Z,8.97
2023-04-08T14:26:17.017Z,10.07
2023-04-08T14:28:45.745Z,9.40
2023-04-08T14:31:14.540Z,8.17
2023-04-08T14:33:43.268Z,9.50
2023-04-08T14:36:15.062Z,7.83
2023-04-08T14:38:43.776Z,9.43
2023-04-08T14:41:12.444Z,10.70
2023-04-08T14:43:41.149Z,7.83
2023-04-08T14:46:09.872Z,10.07
2023-04-08T14:48:38.532Z,8.53
2023-04-08T14:51:07.298Z,8.03
2023-04-08T14:53:37.359Z,11.30
2023-04-08T14:56:08.578Z,7.80
2023-04-08T14:58:37.209Z,13.20
2023-04-08T15:01:05.980Z,10.73
2023-04-08T15:03:34.897Z,10.20
2023-04-08T15:06:04.012Z,10.27
2023-04-08T15:08:34.806Z,10.20
2023-04-08T15:11:04.855Z,8.23
2023-04-08T15:13:33.470Z,8.03
2023-04-08T15:16:02.069Z,8.70
2023-04-08T15:18:30.745Z,6.17
2023-04-08T15:20:59.365Z,7.50
2023-04-08T15:23:28.184Z,9.03
2023-04-08T15:25:57.127Z,8.03
2023-04-08T15:28:27.399Z,5.17
2023-04-08T15:30:56.082Z,8.77
2023-04-08T15:33:25.846Z,5.60
2023-04-08T15:35:54.487Z,4.53
2023-04-08T15:38:23.144Z,5.23
2023-04-08T15:40:51.764Z,3.70
2023-04-08T15:43:20.331Z,3.90
2023-04-08T15:45:50.302Z,6.57
2023-04-08T15:48:18.948Z,3.80
2023-04-08T15:50:47.678Z,5.10
2023-04-08T15:53:16.330Z,5.77
2023-04-08T15:55:44.910Z,6.80
2023-04-08T15:58:13.496Z,4.93
2023-04-08T16:00:42.058Z,6.60
2023-04-08T16:03:12.845Z,12.57
2023-04-08T16:05:42.025Z,11.60
2023-04-08T16:08:10.720Z,3.67
2023-04-08T16:10:39.404Z,9.30
2023-04-08T16:13:08.069Z,3.40
2023-04-08T16:15:37.009Z,5.30
2023-04-08T16:18:06.381Z,6.97
2023-04-08T16:20:38.033Z,5.50
2023-04-08T16:23:06.702Z,7.10
2023-04-08T16:25:35.400Z,5.93
2023-04-08T16:28:04.022Z,4.40
2023-04-08T16:30:32.663Z,3.90
2023-04-08T16:33:01.467Z,5.47
2023-04-08T16:35:30.197Z,4.57
2023-04-08T16:38:00.123Z,4.50
2023-04-08T16:40:32.975Z,4.60
2023-04-08T16:43:01.830Z,4.17
2023-04-08T16:45:30.749Z,6.80
2023-04-08T16:48:00.385Z,4.10
2023-04-08T16:50:29.326Z,8.23
2023-04-08T16:52:57.986Z,8.40
2023-04-08T16:55:27.894Z,6.23
2023-04-08T16:57:57.785Z,4.80
2023-04-08T17:00:26.440Z,4.27
2023-04-08T17:02:57.117Z,5.13
2023-04-08T17:05:26.181Z,5.10
2023-04-08T17:07:56.693Z,5.17
2023-04-08T17:10:25.471Z,10.30
2023-04-08T17:12:57.376Z,5.30
2023-04-08T17:15:26.238Z,4.60
2023-04-08T17:17:54.873Z,4.87
2023-04-08T17:20:24.796Z,7.83
2023-04-08T17:22:53.427Z,5.17
2023-04-08T17:25:22.134Z,5.30
2023-04-08T17:27:50.700Z,4.80
2023-04-08T17:30:20.854Z,6.60
2023-04-08T17:32:49.498Z,5.37
2023-04-08T17:35:18.240Z,5.20
2023-04-08T17:37:46.876Z,5.80
2023-04-08T17:40:15.618Z,6.93
2023-04-08T17:42:44.262Z,13.30
2023-04-08T17:45:13.273Z,6.80
2023-04-08T17:47:44.217Z,5.40
2023-04-08T17:50:12.886Z,5.80
2023-04-08T17:52:44.101Z,4.97
2023-04-08T17:55:12.823Z,4.90
2023-04-08T17:57:41.822Z,4.90
2023-04-08T18:00:11.364Z,5.30
2023-04-08T18:02:41.779Z,4.87
2023-04-08T18:05:12.545Z,5.80
2023-04-08T18:07:41.185Z,5.57
2023-04-08T18:10:10.441Z,10.30
2023-04-08T18:12:39.094Z,7.80
2023-04-08T18:15:08.642Z,6.87
2023-04-08T18:17:37.298Z,6.97
2023-04-08T18:20:07.086Z,6.33
2023-04-08T18:22:37.022Z,6.73
2023-04-08T18:25:06.490Z,6.30
2023-04-08T18:27:35.426Z,6.30
2023-04-08T18:30:04.053Z,11.80
2023-04-08T18:32:32.658Z,6.80
2023-04-08T18:35:01.348Z,6.43
2023-04-08T18:37:30.331Z,6.20
2023-04-08T18:40:02.346Z,5.83
2023-04-08T18:42:31.444Z,6.83
2023-04-08T18:45:00.065Z,8.27
2023-04-08T18:47:28.649Z,7.87
2023-04-08T18:49:57.602Z,9.07
2023-04-08T18:52:26.335Z,8.27
2023-04-08T18:54:54.893Z,8.67
2023-04-08T18:57:25.304Z,7.70
2023-04-08T18:59:54.062Z,9.27
2023-04-08T19:02:22.850Z,6.03
2023-04-08T19:04:51.968Z,17.07
2023-04-08T19:07:20.592Z,13.83
2023-04-08T19:09:49.254Z,15.57
2023-04-08T19:12:17.946Z,6.70
2023-04-08T19:14:48.096Z,7.30
2023-04-08T19:17:16.693Z,7.03
2023-04-08T19:19:45.339Z,8.37
2023-04-08T19:22:13.941Z,6.00
2023-04-08T19:24:42.539Z,6.57
2023-04-08T19:27:11.426Z,8.53
2023-04-08T19:29:40.390Z,6.23
2023-04-08T19:32:10.430Z,5.83
2023-04-08T19:34:39.194Z,8.20
2023-04-08T19:37:08.493Z,8.50
2023-04-08T19:39:37.206Z,7.17
2023-04-08T19:42:06.305Z,7.97
2023-04-08T19:44:34.974Z,7.20
2023-04-08T19:47:05.300Z,9.73
2023-04-08T19:49:35.299Z,10.70
2023-04-08T19:52:03.944Z,6.93
2023-04-08T19:54:32.577Z,7.90
2023-04-08T19:57:01.156Z,12.23
2023-04-08T19:59:29.743Z,9.10
2023-04-08T20:01:58.398Z,8.00
2023-04-08T20:04:27.179Z,8.97
2023-04-08T20:06:57.176Z,8.00
2023-04-08T20:09:25.967Z,9.10
2023-04-08T20:11:54.532Z,9.37
2023-04-08T20:14:23.129Z,11.00
2023-04-08T20:16:52.227Z,8.83
2023-04-08T20:19:21.148Z,8.20
2023-04-08T20:21:49.813Z,9.83
2023-04-08T20:24:19.952Z,9.37
2023-04-08T20:26:48.603Z,8.00
2023-04-08T20:29:17.284Z,8.37
2023-04-08T20:31:46.017Z,7.70
2023-04-08T20:34:14.739Z,8.83
2023-04-08T20:36:43.641Z,8.03
2023-04-08T20:39:12.408Z,9.33
2023-04-08T20:41:42.461Z,8.67
2023-04-08T20:44:11.454Z,10.47
2023-04-08T20:46:40.110Z,8.30
2023-04-08T20:49:08.771Z,9.17
2023-04-08T20:51:37.614Z,12.13
2023-04-08T20:54:06.250Z,9.33
2023-04-08T20:56:34.930Z,9.90
2023-04-08T20:59:04.935Z,9.70
2023-04-08T21:01:33.585Z,12.50
2023-04-08T21:04:03.205Z,10.00
2023-04-08T21:06:32.650Z,9.90
2023-04-08T21:09:01.312Z,9.40
2023-04-08T21:11:29.988Z,8.97
2023-04-08T21:13:58.598Z,10.03
2023-04-08T21:16:29.096Z,10.43
2023-04-08T21:18:59.136Z,9.30
2023-04-08T21:21:27.913Z,10.30
2023-04-08T21:23:56.496Z,10.13
2023-04-08T21:26:26.075Z,10.83
2023-04-08T21:28:54.739Z,9.93
2023-04-08T21:31:23.481Z,11.77
2023-04-08T21:33:53.499Z,10.90
2023-04-08T21:36:22.143Z,10.90
2023-04-08T21:38:50.934Z,10.60
2023-04-08T21:41:19.613Z,10.20
2023-04-08T21:43:48.524Z,9.80
2023-04-08T21:46:17.373Z,12.70
2023-04-08T21:48:46.201Z,15.90
2023-04-08T21:51:17.698Z,13.23
2023-04-08T21:53:46.695Z,12.13
2023-04-08T21:56:15.626Z,9.33
2023-04-08T21:58:44.339Z,11.10
2023-04-08T22:01:12.972Z,9.47
2023-04-08T22:03:41.651Z,10.43
2023-04-08T22:06:12.697Z,10.20
2023-04-08T22:08:46.666Z,10.97
2023-04-08T22:11:15.291Z,12.50
2023-04-08T22:13:44.003Z,8.93
2023-04-08T22:16:12.585Z,12.97
2023-04-08T22:18:41.184Z,10.30
2023-04-08T22:21:09.802Z,14.03
2023-04-08T22:23:38.887Z,10.30
2023-04-08T22:26:08.864Z,10.93
2023-04-08T22:28:37.652Z,13.63
2023-04-08T22:31:10.326Z,9.03
2023-04-08T22:33:39.288Z,10.23
2023-04-08T22:36:08.189Z,10.43
2023-04-08T22:38:36.800Z,11.00
2023-04-08T22:41:05.635Z,10.47
2023-04-08T22:43:35.538Z,13.00
2023-04-08T22:46:04.252Z,10.70
2023-04-08T22:48:32.920Z,13.67
2023-04-08T22:51:01.960Z,12.20
2023-04-08T22:53:30.589Z,9.47
2023-04-08T22:55:59.244Z,9.80
2023-04-08T22:58:27.909Z,10.40
2023-04-08T23:00:58.436Z,11.57
2023-04-08T23:03:27.288Z,11.30
2023-04-08T23:05:55.940Z,17.93
2023-04-08T23:08:24.668Z,9.33
2023-04-08T23:10:53.285Z,9.60
2023-04-08T23:13:21.886Z,10.17
2023-04-08T23:15:50.793Z,9.30
2023-04-08T23:18:20.804Z,12.23
2023-04-08T23:20:52.962Z,9.47
2023-04-08T23:23:24.116Z,11.93
2023-04-08T23:25:54.965Z,11.10
2023-04-08T23:28:24.401Z,10.00
2023-04-08T23:30:53.000Z,13.40
2023-04-08T23:33:23.006Z,11.40
2023-04-08T23:35:51.596Z,10.83
2023-04-08T23:38:20.401Z,11.10
2023-04-08T23:40:48.962Z,10.90
2023-04-08T23:43:17.512Z,11.63
2023-04-08T23:45:46.087Z,10.70
2023-04-08T23:48:14.764Z,9.97
2023-04-08T23:50:44.748Z,10.23
2023-04-08T23:53:13.344Z,8.87
2023-04-08T23:55:41.978Z,10.10
2023-04-08T23:58:10.657Z,8.37
